sensor_id;sensor_type;location;lat;lon;timestamp;P1;durP1;ratioP1;P2;durP2;ratioP2
7823;SDS011;3957;48.61947800;9.05303100;2023-02-27T00:00:36;4.27;;;1.70;;
7823;SDS011;3957;48.61947800;9.05303100;2023-02-27T00:01:37;2.50;;;1.50;;
7823;SDS011;3957;48.61947800;9.05303100;2023-02-27T00:02:38;1.80;;;1.60;;
7823;SDS011;3957;48.61947800;9.05303100;2023-02-27T00:03:38;1.90;;;1.70;;
7823;SDS011;3957;48.61947800;9.05303100;2023-02-27T00:04:39;2.10;;;1.63;;
7823;SDS011;3957;48.61947800;9.05303100;2023-02-27T00:05:40;2.50;;;1.52;;
7823;SDS011;3957;48.61947800;9.05303100;2023-02-27T00:06:41;2.85;;;1.88;;
7823;SDS011;3957;48.61947800;9.05303100;2023-02-27T00:07:41;2.03;;;1.73;;
7823;SDS011;3957;48.61947800;9.05303100;2023-02-27T00:08:42;2.80;;;1.60;;
7823;SDS011;3957;48.61947800;9.05303100;2023-02-27T00:09:43;2.03;;;1.60;;
7823;SDS011;3957;48.61947800;9.05303100;2023-02-27T00:10:43;2.90;;;1.50;;
7823;SDS011;3957;48.61947800;9.05303100;2023-02-27T00:11:44;5.03;;;1.90;;
7823;SDS011;3957;48.61947800;9.05303100;2023-02-27T00:12:44;3.40;;;1.70;;
7823;SDS011;3957;48.61947800;9.05303100;2023-02-27T00:13:45;1.65;;;1.55;;
7823;SDS011;3957;48.61947800;9.05303100;2023-02-27T00:14:45;2.63;;;1.40;;
7823;SDS011;3957;48.61947800;9.05303100;2023-02-27T00:15:46;2.80;;;1.73;;
7823;SDS011;3957;48.61947800;9.05303100;2023-02-27T00:16:48;1.83;;;1.53;;
7823;SDS011;3957;48.61947800;9.05303100;2023-02-27T00:17:49;2.30;;;1.60;;
7823;SDS011;3957;48.61947800;9.05303100;2023-02-27T00:18:49;1.60;;;1.50;;
7823;SDS011;3957;48.61947800;9.05303100;2023-02-27T00:19:50;3.92;;;1.92;;
7823;SDS011;3957;48.61947800;9.05303100;2023-02-27T00:20:50;3.77;;;1.93;;
7823;SDS011;3957;48.61947800;9.05303100;2023-02-27T00:21:51;4.03;;;2.07;;
7823;SDS011;3957;48.61947800;9.05303100;2023-02-27T00:22:51;3.53;;;1.67;;
7823;SDS011;3957;48.61947800;9.05303100;2023-02-27T00:23:52;3.55;;;2.10;;
7823;SDS011;3957;48.61947800;9.05303100;2023-02-27T00:24:52;2.10;;;1.90;;
7823;SDS011;3957;48.61947800;9.05303100;2023-02-27T00:25:53;2.85;;;1.60;;
7823;SDS011;3957;48.61947800;9.05303100;2023-02-27T00:26:54;2.42;;;1.73;;
7823;SDS011;3957;48.61947800;9.05303100;2023-02-27T00:27:54;3.47;;;1.80;;
7823;SDS011;3957;48.61947800;9.05303100;2023-02-27T00:28:55;1.77;;;1.65;;
7823;SDS011;3957;48.61947800;9.05303100;2023-02-27T00:29:56;2.92;;;1.77;;
7823;SDS011;3957;48.61947800;9.05303100;2023-02-27T00:30:56;1.60;;;1.40;;
7823;SDS011;3957;48.61947800;9.05303100;2023-02-27T00:31:57;2.13;;;1.85;;
7823;SDS011;3957;48.61947800;9.05303100;2023-02-27T00:32:57;3.08;;;1.70;;
7823;SDS011;3957;48.61947800;9.05303100;2023-02-27T00:33:58;4.00;;;1.70;;
7823;SDS011;3957;48.61947800;9.05303100;2023-02-27T00:34:58;1.33;;;1.23;;
7823;SDS011;3957;48.61947800;9.05303100;2023-02-27T00:35:59;3.03;;;1.75;;
7823;SDS011;3957;48.61947800;9.05303100;2023-02-27T00:37:01;2.38;;;1.67;;
7823;SDS011;3957;48.61947800;9.05303100;2023-02-27T00:38:01;3.55;;;1.70;;
7823;SDS011;3957;48.61947800;9.05303100;2023-02-27T00:39:02;2.67;;;1.57;;
7823;SDS011;3957;48.61947800;9.05303100;2023-02-27T00:40:03;2.80;;;1.77;;
7823;SDS011;3957;48.61947800;9.05303100;2023-02-27T00:41:05;2.78;;;1.83;;
7823;SDS011;3957;48.61947800;9.05303100;2023-02-27T00:42:05;2.30;;;1.53;;
7823;SDS011;3957;48.61947800;9.05303100;2023-02-27T00:43:06;2.88;;;1.50;;
7823;SDS011;3957;48.61947800;9.05303100;2023-02-27T00:44:06;1.70;;;1.60;;
7823;SDS011;3957;48.61947800;9.05303100;2023-02-27T00:45:07;2.67;;;1.73;;
7823;SDS011;3957;48.61947800;9.05303100;2023-02-27T00:46:08;1.92;;;1.55;;
7823;SDS011;3957;48.61947800;9.05303100;2023-02-27T00:47:09;2.30;;;1.30;;
7823;SDS011;3957;48.61947800;9.05303100;2023-02-27T00:48:09;3.27;;;1.87;;
7823;SDS011;3957;48.61947800;9.05303100;2023-02-27T00:49:10;4.22;;;1.73;;
7823;SDS011;3957;48.61947800;9.05303100;2023-02-27T00:50:10;2.08;;;1.45;;
7823;SDS011;3957;48.61947800;9.05303100;2023-02-27T00:51:12;1.73;;;1.33;;
7823;SDS011;3957;48.61947800;9.05303100;2023-02-27T00:52:12;1.90;;;1.70;;
7823;SDS011;3957;48.61947800;9.05303100;2023-02-27T00:53:13;2.42;;;1.80;;
7823;SDS011;3957;48.61947800;9.05303100;2023-02-27T00:54:14;2.60;;;1.60;;
7823;SDS011;3957;48.61947800;9.05303100;2023-02-27T00:55:14;1.80;;;1.47;;
7823;SDS011;3957;48.61947800;9.05303100;2023-02-27T00:56:14;2.50;;;1.70;;
7823;SDS011;3957;48.61947800;9.05303100;2023-02-27T00:57:15;2.73;;;1.60;;
7823;SDS011;3957;48.61947800;9.05303100;2023-02-27T00:58:15;1.97;;;1.63;;
7823;SDS011;3957;48.61947800;9.05303100;2023-02-27T00:59:16;3.65;;;1.50;;
7823;SDS011;3957;48.61947800;9.05303100;2023-02-27T01:00:16;1.87;;;1.70;;
7823;SDS011;3957;48.61947800;9.05303100;2023-02-27T01:01:17;1.90;;;1.70;;
7823;SDS011;3957;48.61947800;9.05303100;2023-02-27T01:02:17;1.73;;;1.60;;
7823;SDS011;3957;48.61947800;9.05303100;2023-02-27T01:03:18;2.50;;;1.50;;
7823;SDS011;3957;48.61947800;9.05303100;2023-02-27T01:04:20;2.30;;;1.70;;
7823;SDS011;3957;48.61947800;9.05303100;2023-02-27T01:05:20;4.77;;;1.70;;
7823;SDS011;3957;48.61947800;9.05303100;2023-02-27T01:06:20;2.28;;;1.80;;
7823;SDS011;3957;48.61947800;9.05303100;2023-02-27T01:07:21;2.77;;;1.50;;
7823;SDS011;3957;48.61947800;9.05303100;2023-02-27T01:08:21;2.92;;;1.80;;
7823;SDS011;3957;48.61947800;9.05303100;2023-02-27T01:09:21;2.30;;;1.70;;
7823;SDS011;3957;48.61947800;9.05303100;2023-02-27T01:10:25;3.78;;;1.58;;
7823;SDS011;3957;48.61947800;9.05303100;2023-02-27T01:11:25;2.80;;;1.63;;
7823;SDS011;3957;48.61947800;9.05303100;2023-02-27T01:12:25;2.53;;;1.70;;
7823;SDS011;3957;48.61947800;9.05303100;2023-02-27T01:13:26;1.67;;;1.57;;
7823;SDS011;3957;48.61947800;9.05303100;2023-02-27T01:14:26;3.50;;;1.70;;
7823;SDS011;3957;48.61947800;9.05303100;2023-02-27T01:15:27;2.95;;;1.70;;
7823;SDS011;3957;48.61947800;9.05303100;2023-02-27T01:16:27;2.03;;;1.83;;
7823;SDS011;3957;48.61947800;9.05303100;2023-02-27T01:17:28;2.15;;;1.77;;
7823;SDS011;3957;48.61947800;9.05303100;2023-02-27T01:18:28;2.05;;;1.80;;
7823;SDS011;3957;48.61947800;9.05303100;2023-02-27T01:19:29;4.30;;;1.70;;
7823;SDS011;3957;48.61947800;9.05303100;2023-02-27T01:20:29;3.47;;;1.60;;
7823;SDS011;3957;48.61947800;9.05303100;2023-02-27T01:21:30;3.00;;;1.73;;
7823;SDS011;3957;48.61947800;9.05303100;2023-02-27T01:22:30;1.90;;;1.57;;
7823;SDS011;3957;48.61947800;9.05303100;2023-02-27T01:23:32;4.05;;;1.55;;
7823;SDS011;3957;48.61947800;9.05303100;2023-02-27T01:24:32;2.03;;;1.47;;
7823;SDS011;3957;48.61947800;9.05303100;2023-02-27T01:25:32;1.70;;;1.50;;
7823;SDS011;3957;48.61947800;9.05303100;2023-02-27T01:26:33;1.85;;;1.50;;
7823;SDS011;3957;48.61947800;9.05303100;2023-02-27T01:27:34;2.53;;;1.90;;
7823;SDS011;3957;48.61947800;9.05303100;2023-02-27T01:28:35;3.80;;;1.70;;
7823;SDS011;3957;48.61947800;9.05303100;2023-02-27T01:29:35;1.85;;;1.60;;
7823;SDS011;3957;48.61947800;9.05303100;2023-02-27T01:30:36;1.83;;;1.30;;
7823;SDS011;3957;48.61947800;9.05303100;2023-02-27T01:31:36;2.17;;;1.90;;
7823;SDS011;3957;48.61947800;9.05303100;2023-02-27T01:32:37;3.77;;;1.70;;
7823;SDS011;3957;48.61947800;9.05303100;2023-02-27T01:33:37;2.50;;;1.65;;
7823;SDS011;3957;48.61947800;9.05303100;2023-02-27T01:34:37;3.33;;;1.60;;
7823;SDS011;3957;48.61947800;9.05303100;2023-02-27T01:35:38;4.13;;;1.83;;
7823;SDS011;3957;48.61947800;9.05303100;2023-02-27T01:36:39;2.05;;;1.75;;
7823;SDS011;3957;48.61947800;9.05303100;2023-02-27T01:37:39;1.80;;;1.70;;
7823;SDS011;3957;48.61947800;9.05303100;2023-02-27T01:38:39;2.33;;;1.63;;
7823;SDS011;3957;48.61947800;9.05303100;2023-02-27T01:39:40;2.43;;;1.83;;
7823;SDS011;3957;48.61947800;9.05303100;2023-02-27T01:40:41;2.38;;;1.55;;
7823;SDS011;3957;48.61947800;9.05303100;2023-02-27T01:41:42;2.25;;;1.83;;
7823;SDS011;3957;48.61947800;9.05303100;2023-02-27T01:42:42;2.38;;;1.63;;
7823;SDS011;3957;48.61947800;9.05303100;2023-02-27T01:43:59;2.23;;;1.80;;
7823;SDS011;3957;48.61947800;9.05303100;2023-02-27T01:46:11;2.53;;;1.80;;
7823;SDS011;3957;48.61947800;9.05303100;2023-02-27T01:47:12;3.70;;;1.80;;
7823;SDS011;3957;48.61947800;9.05303100;2023-02-27T01:49:30;2.22;;;1.88;;
7823;SDS011;3957;48.61947800;9.05303100;2023-02-27T01:50:34;1.98;;;1.75;;
7823;SDS011;3957;48.61947800;9.05303100;2023-02-27T01:51:42;2.70;;;1.83;;
7823;SDS011;3957;48.61947800;9.05303100;2023-02-27T01:52:50;2.92;;;1.70;;
7823;SDS011;3957;48.61947800;9.05303100;2023-02-27T01:53:54;1.80;;;1.70;;
7823;SDS011;3957;48.61947800;9.05303100;2023-02-27T01:54:56;3.72;;;1.80;;
7823;SDS011;3957;48.61947800;9.05303100;2023-02-27T01:55:57;3.43;;;2.00;;
7823;SDS011;3957;48.61947800;9.05303100;2023-02-27T01:57:04;2.95;;;1.92;;
7823;SDS011;3957;48.61947800;9.05303100;2023-02-27T01:58:07;2.70;;;2.10;;
7823;SDS011;3957;48.61947800;9.05303100;2023-02-27T01:59:10;4.63;;;2.03;;
7823;SDS011;3957;48.61947800;9.05303100;2023-02-27T02:00:11;4.85;;;2.20;;
7823;SDS011;3957;48.61947800;9.05303100;2023-02-27T02:01:13;2.40;;;2.00;;
7823;SDS011;3957;48.61947800;9.05303100;2023-02-27T02:02:17;5.82;;;2.30;;
7823;SDS011;3957;48.61947800;9.05303100;2023-02-27T02:03:30;3.28;;;2.00;;
7823;SDS011;3957;48.61947800;9.05303100;2023-02-27T02:04:37;3.78;;;2.00;;
7823;SDS011;3957;48.61947800;9.05303100;2023-02-27T02:05:39;3.25;;;2.13;;
7823;SDS011;3957;48.61947800;9.05303100;2023-02-27T02:06:43;2.50;;;1.90;;
7823;SDS011;3957;48.61947800;9.05303100;2023-02-27T02:07:45;2.25;;;1.63;;
7823;SDS011;3957;48.61947800;9.05303100;2023-02-27T02:08:47;2.55;;;1.88;;
7823;SDS011;3957;48.61947800;9.05303100;2023-02-27T02:09:52;3.05;;;2.00;;
7823;SDS011;3957;48.61947800;9.05303100;2023-02-27T02:10:56;4.28;;;1.80;;
7823;SDS011;3957;48.61947800;9.05303100;2023-02-27T02:11:57;3.13;;;1.90;;
7823;SDS011;3957;48.61947800;9.05303100;2023-02-27T02:12:58;2.83;;;1.83;;
7823;SDS011;3957;48.61947800;9.05303100;2023-02-27T02:14:00;2.87;;;1.80;;
7823;SDS011;3957;48.61947800;9.05303100;2023-02-27T02:15:12;3.50;;;1.92;;
7823;SDS011;3957;48.61947800;9.05303100;2023-02-27T02:24:35;3.85;;;2.00;;
7823;SDS011;3957;48.61947800;9.05303100;2023-02-27T02:29:33;2.03;;;1.63;;
7823;SDS011;3957;48.61947800;9.05303100;2023-02-27T02:37:51;3.90;;;2.17;;
7823;SDS011;3957;48.61947800;9.05303100;2023-02-27T02:39:11;3.53;;;2.20;;
7823;SDS011;3957;48.61947800;9.05303100;2023-02-27T02:42:58;3.08;;;2.22;;
7823;SDS011;3957;48.61947800;9.05303100;2023-02-27T02:44:14;4.40;;;2.50;;
7823;SDS011;3957;48.61947800;9.05303100;2023-02-27T02:45:32;2.88;;;2.25;;
7823;SDS011;3957;48.61947800;9.05303100;2023-02-27T02:46:38;3.40;;;2.15;;
7823;SDS011;3957;48.61947800;9.05303100;2023-02-27T02:49:24;3.28;;;1.92;;
7823;SDS011;3957;48.61947800;9.05303100;2023-02-27T02:51:30;3.53;;;1.90;;
7823;SDS011;3957;48.61947800;9.05303100;2023-02-27T02:53:47;2.92;;;2.10;;
7823;SDS011;3957;48.61947800;9.05303100;2023-02-27T02:54:58;2.97;;;2.20;;
7823;SDS011;3957;48.61947800;9.05303100;2023-02-27T02:56:06;4.10;;;2.30;;
7823;SDS011;3957;48.61947800;9.05303100;2023-02-27T02:57:15;3.97;;;2.22;;
7823;SDS011;3957;48.61947800;9.05303100;2023-02-27T03:00:02;2.20;;;2.00;;
7823;SDS011;3957;48.61947800;9.05303100;2023-02-27T03:01:11;2.75;;;2.20;;
7823;SDS011;3957;48.61947800;9.05303100;2023-02-27T03:02:16;2.92;;;2.00;;
7823;SDS011;3957;48.61947800;9.05303100;2023-02-27T03:03:24;3.33;;;2.37;;
7823;SDS011;3957;48.61947800;9.05303100;2023-02-27T03:04:39;3.20;;;2.20;;
7823;SDS011;3957;48.61947800;9.05303100;2023-02-27T03:05:47;4.30;;;1.90;;
7823;SDS011;3957;48.61947800;9.05303100;2023-02-27T03:06:54;3.35;;;2.03;;
7823;SDS011;3957;48.61947800;9.05303100;2023-02-27T03:08:06;2.70;;;2.30;;
7823;SDS011;3957;48.61947800;9.05303100;2023-02-27T03:09:22;2.67;;;2.38;;
7823;SDS011;3957;48.61947800;9.05303100;2023-02-27T03:11:58;2.97;;;2.42;;
7823;SDS011;3957;48.61947800;9.05303100;2023-02-27T03:13:04;2.88;;;2.30;;
7823;SDS011;3957;48.61947800;9.05303100;2023-02-27T03:15:19;3.72;;;2.50;;
7823;SDS011;3957;48.61947800;9.05303100;2023-02-27T03:16:25;5.75;;;2.58;;
7823;SDS011;3957;48.61947800;9.05303100;2023-02-27T03:17:35;3.05;;;2.30;;
7823;SDS011;3957;48.61947800;9.05303100;2023-02-27T03:18:45;4.70;;;2.30;;
7823;SDS011;3957;48.61947800;9.05303100;2023-02-27T03:20:01;4.13;;;2.20;;
7823;SDS011;3957;48.61947800;9.05303100;2023-02-27T03:21:08;3.60;;;2.60;;
7823;SDS011;3957;48.61947800;9.05303100;2023-02-27T03:22:16;3.50;;;2.30;;
7823;SDS011;3957;48.61947800;9.05303100;2023-02-27T03:23:24;4.30;;;2.15;;
7823;SDS011;3957;48.61947800;9.05303100;2023-02-27T03:24:30;4.57;;;2.58;;
7823;SDS011;3957;48.61947800;9.05303100;2023-02-27T03:25:38;3.15;;;2.17;;
7823;SDS011;3957;48.61947800;9.05303100;2023-02-27T03:26:45;3.97;;;2.55;;
7823;SDS011;3957;48.61947800;9.05303100;2023-02-27T03:27:54;4.53;;;2.42;;
7823;SDS011;3957;48.61947800;9.05303100;2023-02-27T03:29:00;3.28;;;2.67;;
7823;SDS011;3957;48.61947800;9.05303100;2023-02-27T03:31:12;5.28;;;2.70;;
7823;SDS011;3957;48.61947800;9.05303100;2023-02-27T03:32:26;4.53;;;2.58;;
7823;SDS011;3957;48.61947800;9.05303100;2023-02-27T03:33:34;4.10;;;2.45;;
7823;SDS011;3957;48.61947800;9.05303100;2023-02-27T03:34:41;3.58;;;2.30;;
7823;SDS011;3957;48.61947800;9.05303100;2023-02-27T03:35:46;3.67;;;2.70;;
7823;SDS011;3957;48.61947800;9.05303100;2023-02-27T03:40:51;6.47;;;2.67;;
7823;SDS011;3957;48.61947800;9.05303100;2023-02-27T03:46:15;3.22;;;2.47;;
7823;SDS011;3957;48.61947800;9.05303100;2023-02-27T03:47:17;5.10;;;2.85;;
7823;SDS011;3957;48.61947800;9.05303100;2023-02-27T03:48:18;3.45;;;2.90;;
7823;SDS011;3957;48.61947800;9.05303100;2023-02-27T03:49:19;5.57;;;2.70;;
7823;SDS011;3957;48.61947800;9.05303100;2023-02-27T03:50:22;3.35;;;2.80;;
7823;SDS011;3957;48.61947800;9.05303100;2023-02-27T03:51:23;3.13;;;2.58;;
7823;SDS011;3957;48.61947800;9.05303100;2023-02-27T03:52:26;5.78;;;2.53;;
7823;SDS011;3957;48.61947800;9.05303100;2023-02-27T03:53:32;4.07;;;2.88;;
7823;SDS011;3957;48.61947800;9.05303100;2023-02-27T03:54:39;4.28;;;2.72;;
7823;SDS011;3957;48.61947800;9.05303100;2023-02-27T03:55:48;7.43;;;2.85;;
7823;SDS011;3957;48.61947800;9.05303100;2023-02-27T03:56:54;3.33;;;2.58;;
7823;SDS011;3957;48.61947800;9.05303100;2023-02-27T03:57:59;5.38;;;3.50;;
7823;SDS011;3957;48.61947800;9.05303100;2023-02-27T03:59:00;5.60;;;3.67;;
7823;SDS011;3957;48.61947800;9.05303100;2023-02-27T04:00:03;4.22;;;3.47;;
7823;SDS011;3957;48.61947800;9.05303100;2023-02-27T04:01:13;5.50;;;3.53;;
7823;SDS011;3957;48.61947800;9.05303100;2023-02-27T04:02:14;5.75;;;3.90;;
7823;SDS011;3957;48.61947800;9.05303100;2023-02-27T04:03:15;4.65;;;3.30;;
7823;SDS011;3957;48.61947800;9.05303100;2023-02-27T04:04:16;6.00;;;3.80;;
7823;SDS011;3957;48.61947800;9.05303100;2023-02-27T04:05:53;7.35;;;4.00;;
7823;SDS011;3957;48.61947800;9.05303100;2023-02-27T04:06:55;5.10;;;3.90;;
7823;SDS011;3957;48.61947800;9.05303100;2023-02-27T04:10:42;5.07;;;3.28;;
7823;SDS011;3957;48.61947800;9.05303100;2023-02-27T04:13:04;5.10;;;2.92;;
7823;SDS011;3957;48.61947800;9.05303100;2023-02-27T04:21:29;5.28;;;2.90;;
7823;SDS011;3957;48.61947800;9.05303100;2023-02-27T04:22:37;3.70;;;2.78;;
7823;SDS011;3957;48.61947800;9.05303100;2023-02-27T04:26:27;3.45;;;2.92;;
7823;SDS011;3957;48.61947800;9.05303100;2023-02-27T04:29:13;3.15;;;2.70;;
7823;SDS011;3957;48.61947800;9.05303100;2023-02-27T04:30:31;4.20;;;2.90;;
7823;SDS011;3957;48.61947800;9.05303100;2023-02-27T04:31:48;4.15;;;2.97;;
7823;SDS011;3957;48.61947800;9.05303100;2023-02-27T04:32:52;5.87;;;3.03;;
7823;SDS011;3957;48.61947800;9.05303100;2023-02-27T04:35:11;4.18;;;3.00;;
7823;SDS011;3957;48.61947800;9.05303100;2023-02-27T04:37:47;5.72;;;3.22;;
7823;SDS011;3957;48.61947800;9.05303100;2023-02-27T04:39:00;3.42;;;3.00;;
7823;SDS011;3957;48.61947800;9.05303100;2023-02-27T04:40:05;4.00;;;2.83;;
7823;SDS011;3957;48.61947800;9.05303100;2023-02-27T04:41:15;4.07;;;3.15;;
7823;SDS011;3957;48.61947800;9.05303100;2023-02-27T04:42:22;4.82;;;3.47;;
7823;SDS011;3957;48.61947800;9.05303100;2023-02-27T04:43:26;5.20;;;3.60;;
7823;SDS011;3957;48.61947800;9.05303100;2023-02-27T04:44:28;5.03;;;3.30;;
7823;SDS011;3957;48.61947800;9.05303100;2023-02-27T04:45:32;4.15;;;3.10;;
7823;SDS011;3957;48.61947800;9.05303100;2023-02-27T04:46:37;5.53;;;3.40;;
7823;SDS011;3957;48.61947800;9.05303100;2023-02-27T04:47:43;3.95;;;3.50;;
7823;SDS011;3957;48.61947800;9.05303100;2023-02-27T04:48:51;5.32;;;3.25;;
7823;SDS011;3957;48.61947800;9.05303100;2023-02-27T04:49:58;4.18;;;2.83;;
7823;SDS011;3957;48.61947800;9.05303100;2023-02-27T04:51:14;5.07;;;3.53;;
7823;SDS011;3957;48.61947800;9.05303100;2023-02-27T04:52:19;6.72;;;3.75;;
7823;SDS011;3957;48.61947800;9.05303100;2023-02-27T04:53:27;4.65;;;3.30;;
7823;SDS011;3957;48.61947800;9.05303100;2023-02-27T04:54:38;4.28;;;3.10;;
7823;SDS011;3957;48.61947800;9.05303100;2023-02-27T04:55:46;4.65;;;3.40;;
7823;SDS011;3957;48.61947800;9.05303100;2023-02-27T04:56:51;5.50;;;2.92;;
7823;SDS011;3957;48.61947800;9.05303100;2023-02-27T04:58:00;4.60;;;3.30;;
7823;SDS011;3957;48.61947800;9.05303100;2023-02-27T04:59:16;4.35;;;3.00;;
7823;SDS011;3957;48.61947800;9.05303100;2023-02-27T05:00:21;4.32;;;3.55;;
7823;SDS011;3957;48.61947800;9.05303100;2023-02-27T05:01:30;6.00;;;3.15;;
7823;SDS011;3957;48.61947800;9.05303100;2023-02-27T05:02:40;4.00;;;3.15;;
7823;SDS011;3957;48.61947800;9.05303100;2023-02-27T05:03:45;7.05;;;3.65;;
7823;SDS011;3957;48.61947800;9.05303100;2023-02-27T05:04:49;3.58;;;3.03;;
7823;SDS011;3957;48.61947800;9.05303100;2023-02-27T05:05:54;6.25;;;3.30;;
7823;SDS011;3957;48.61947800;9.05303100;2023-02-27T05:06:59;4.88;;;3.30;;
7823;SDS011;3957;48.61947800;9.05303100;2023-02-27T05:12:25;4.78;;;3.83;;
7823;SDS011;3957;48.61947800;9.05303100;2023-02-27T05:13:39;4.30;;;3.08;;
7823;SDS011;3957;48.61947800;9.05303100;2023-02-27T05:14:54;5.28;;;3.40;;
7823;SDS011;3957;48.61947800;9.05303100;2023-02-27T05:16:02;6.03;;;3.60;;
7823;SDS011;3957;48.61947800;9.05303100;2023-02-27T05:17:10;4.38;;;3.20;;
7823;SDS011;3957;48.61947800;9.05303100;2023-02-27T05:18:17;5.32;;;3.58;;
7823;SDS011;3957;48.61947800;9.05303100;2023-02-27T05:19:20;5.05;;;3.10;;
7823;SDS011;3957;48.61947800;9.05303100;2023-02-27T05:20:22;6.75;;;3.58;;
7823;SDS011;3957;48.61947800;9.05303100;2023-02-27T05:21:27;4.47;;;3.60;;
7823;SDS011;3957;48.61947800;9.05303100;2023-02-27T05:22:40;4.75;;;3.40;;
7823;SDS011;3957;48.61947800;9.05303100;2023-02-27T05:27:51;5.30;;;3.30;;
7823;SDS011;3957;48.61947800;9.05303100;2023-02-27T05:28:59;6.68;;;3.42;;
7823;SDS011;3957;48.61947800;9.05303100;2023-02-27T05:30:03;4.47;;;3.40;;
7823;SDS011;3957;48.61947800;9.05303100;2023-02-27T05:33:45;6.43;;;3.80;;
7823;SDS011;3957;48.61947800;9.05303100;2023-02-27T05:34:56;6.90;;;3.85;;
7823;SDS011;3957;48.61947800;9.05303100;2023-02-27T05:36:15;5.60;;;3.70;;
7823;SDS011;3957;48.61947800;9.05303100;2023-02-27T05:37:23;6.07;;;3.40;;
7823;SDS011;3957;48.61947800;9.05303100;2023-02-27T05:38:35;4.10;;;3.25;;
7823;SDS011;3957;48.61947800;9.05303100;2023-02-27T05:39:39;4.78;;;3.10;;
7823;SDS011;3957;48.61947800;9.05303100;2023-02-27T05:40:52;6.43;;;3.50;;
7823;SDS011;3957;48.61947800;9.05303100;2023-02-27T05:41:59;6.28;;;3.45;;
7823;SDS011;3957;48.61947800;9.05303100;2023-02-27T05:43:09;5.10;;;3.10;;
7823;SDS011;3957;48.61947800;9.05303100;2023-02-27T05:44:12;4.70;;;2.95;;
7823;SDS011;3957;48.61947800;9.05303100;2023-02-27T05:45:17;3.95;;;3.28;;
7823;SDS011;3957;48.61947800;9.05303100;2023-02-27T05:46:22;6.85;;;4.18;;
7823;SDS011;3957;48.61947800;9.05303100;2023-02-27T05:47:27;9.38;;;4.95;;
7823;SDS011;3957;48.61947800;9.05303100;2023-02-27T05:48:34;8.90;;;5.20;;
7823;SDS011;3957;48.61947800;9.05303100;2023-02-27T05:49:44;8.20;;;4.50;;
7823;SDS011;3957;48.61947800;9.05303100;2023-02-27T05:50:50;7.95;;;4.65;;
7823;SDS011;3957;48.61947800;9.05303100;2023-02-27T05:51:52;6.80;;;4.25;;
7823;SDS011;3957;48.61947800;9.05303100;2023-02-27T05:52:56;6.30;;;4.00;;
7823;SDS011;3957;48.61947800;9.05303100;2023-02-27T05:54:02;5.55;;;4.25;;
7823;SDS011;3957;48.61947800;9.05303100;2023-02-27T05:56:35;3.88;;;3.40;;
7823;SDS011;3957;48.61947800;9.05303100;2023-02-27T05:57:39;5.85;;;3.28;;
7823;SDS011;3957;48.61947800;9.05303100;2023-02-27T05:58:56;4.90;;;3.35;;
7823;SDS011;3957;48.61947800;9.05303100;2023-02-27T06:01:24;7.35;;;3.85;;
7823;SDS011;3957;48.61947800;9.05303100;2023-02-27T06:02:25;5.28;;;3.35;;
7823;SDS011;3957;48.61947800;9.05303100;2023-02-27T06:03:26;4.47;;;3.33;;
7823;SDS011;3957;48.61947800;9.05303100;2023-02-27T06:04:28;5.00;;;3.50;;
7823;SDS011;3957;48.61947800;9.05303100;2023-02-27T06:05:28;4.07;;;3.57;;
7823;SDS011;3957;48.61947800;9.05303100;2023-02-27T06:06:29;6.28;;;3.33;;
7823;SDS011;3957;48.61947800;9.05303100;2023-02-27T06:07:30;5.13;;;3.67;;
7823;SDS011;3957;48.61947800;9.05303100;2023-02-27T06:08:31;7.65;;;4.00;;
7823;SDS011;3957;48.61947800;9.05303100;2023-02-27T06:09:32;6.03;;;4.45;;
7823;SDS011;3957;48.61947800;9.05303100;2023-02-27T06:10:33;5.65;;;4.75;;
7823;SDS011;3957;48.61947800;9.05303100;2023-02-27T06:11:33;6.00;;;4.30;;
7823;SDS011;3957;48.61947800;9.05303100;2023-02-27T06:12:34;4.73;;;3.90;;
7823;SDS011;3957;48.61947800;9.05303100;2023-02-27T06:13:34;6.40;;;3.83;;
7823;SDS011;3957;48.61947800;9.05303100;2023-02-27T06:14:34;5.25;;;3.85;;
7823;SDS011;3957;48.61947800;9.05303100;2023-02-27T06:15:35;5.80;;;4.00;;
7823;SDS011;3957;48.61947800;9.05303100;2023-02-27T06:16:35;6.53;;;4.70;;
7823;SDS011;3957;48.61947800;9.05303100;2023-02-27T06:17:37;7.32;;;4.68;;
7823;SDS011;3957;48.61947800;9.05303100;2023-02-27T06:18:38;4.65;;;3.75;;
7823;SDS011;3957;48.61947800;9.05303100;2023-02-27T06:19:38;5.77;;;4.10;;
7823;SDS011;3957;48.61947800;9.05303100;2023-02-27T06:20:39;6.13;;;3.80;;
7823;SDS011;3957;48.61947800;9.05303100;2023-02-27T06:21:40;6.18;;;3.70;;
7823;SDS011;3957;48.61947800;9.05303100;2023-02-27T06:22:41;5.83;;;3.97;;
7823;SDS011;3957;48.61947800;9.05303100;2023-02-27T06:23:41;6.20;;;3.70;;
7823;SDS011;3957;48.61947800;9.05303100;2023-02-27T06:24:42;4.60;;;3.63;;
7823;SDS011;3957;48.61947800;9.05303100;2023-02-27T06:25:42;5.30;;;3.47;;
7823;SDS011;3957;48.61947800;9.05303100;2023-02-27T06:26:43;5.03;;;3.80;;
7823;SDS011;3957;48.61947800;9.05303100;2023-02-27T06:27:43;4.00;;;3.58;;
7823;SDS011;3957;48.61947800;9.05303100;2023-02-27T06:28:44;5.67;;;3.77;;
7823;SDS011;3957;48.61947800;9.05303100;2023-02-27T06:29:44;4.90;;;3.80;;
7823;SDS011;3957;48.61947800;9.05303100;2023-02-27T06:30:44;6.87;;;4.10;;
7823;SDS011;3957;48.61947800;9.05303100;2023-02-27T06:31:45;5.00;;;3.77;;
7823;SDS011;3957;48.61947800;9.05303100;2023-02-27T06:32:45;4.60;;;3.50;;
7823;SDS011;3957;48.61947800;9.05303100;2023-02-27T06:33:45;5.47;;;3.80;;
7823;SDS011;3957;48.61947800;9.05303100;2023-02-27T06:34:46;8.50;;;4.15;;
7823;SDS011;3957;48.61947800;9.05303100;2023-02-27T06:35:47;5.67;;;4.07;;
7823;SDS011;3957;48.61947800;9.05303100;2023-02-27T06:36:48;9.50;;;3.65;;
7823;SDS011;3957;48.61947800;9.05303100;2023-02-27T06:37:48;8.32;;;3.88;;
7823;SDS011;3957;48.61947800;9.05303100;2023-02-27T06:38:48;7.33;;;4.23;;
7823;SDS011;3957;48.61947800;9.05303100;2023-02-27T06:39:49;6.45;;;4.20;;
7823;SDS011;3957;48.61947800;9.05303100;2023-02-27T06:40:50;7.17;;;3.87;;
7823;SDS011;3957;48.61947800;9.05303100;2023-02-27T06:41:51;7.57;;;3.92;;
7823;SDS011;3957;48.61947800;9.05303100;2023-02-27T06:42:51;6.70;;;4.23;;
7823;SDS011;3957;48.61947800;9.05303100;2023-02-27T06:43:51;8.10;;;4.50;;
7823;SDS011;3957;48.61947800;9.05303100;2023-02-27T06:44:52;6.90;;;4.23;;
7823;SDS011;3957;48.61947800;9.05303100;2023-02-27T06:45:53;6.47;;;3.77;;
7823;SDS011;3957;48.61947800;9.05303100;2023-02-27T06:46:54;6.10;;;4.20;;
7823;SDS011;3957;48.61947800;9.05303100;2023-02-27T06:47:54;7.30;;;4.30;;
7823;SDS011;3957;48.61947800;9.05303100;2023-02-27T06:48:55;7.00;;;4.00;;
7823;SDS011;3957;48.61947800;9.05303100;2023-02-27T06:49:55;7.82;;;4.32;;
7823;SDS011;3957;48.61947800;9.05303100;2023-02-27T06:50:55;6.43;;;4.47;;
7823;SDS011;3957;48.61947800;9.05303100;2023-02-27T06:51:56;8.55;;;5.15;;
7823;SDS011;3957;48.61947800;9.05303100;2023-02-27T06:52:56;6.55;;;4.40;;
7823;SDS011;3957;48.61947800;9.05303100;2023-02-27T06:53:57;7.00;;;4.00;;
7823;SDS011;3957;48.61947800;9.05303100;2023-02-27T06:54:58;5.72;;;3.70;;
7823;SDS011;3957;48.61947800;9.05303100;2023-02-27T06:55:58;7.88;;;4.28;;
7823;SDS011;3957;48.61947800;9.05303100;2023-02-27T06:56:59;6.97;;;4.10;;
7823;SDS011;3957;48.61947800;9.05303100;2023-02-27T06:57:59;6.40;;;4.10;;